Time;durP1;ratioP1;P1;durP2;ratioP2;P2;SDS_P1;SDS_P2;PMS_P1;PMS_P2;Temp;Humidity;BMP_temperature;BMP_pressure;BME280_temperature;BME280_humidity;BME280_pressure;Samples;Min_cycle;Max_cycle;Signal;HPM_P1;HPM_P2
2022/07/04 00:00:38;;;;;;;6.22;1.85;;;;;;;;;;10309527;28;20026;-46
2022/07/04 00:05:38;;;;;;;5.07;1.50;;;;;;;;;;10322692;28;20037;-48
2022/07/04 00:10:39;;;;;;;3.17;1.85;;;;;;;;;;10322735;28;20037;-46
2022/07/04 00:15:40;;;;;;;6.03;2.20;;;;;;;;;;10328049;28;20018;-46
2022/07/04 00:20:40;;;;;;;3.67;1.73;;;;;;;;;;10310261;28;20037;-46
2022/07/04 00:25:41;;;;;;;4.05;1.88;;;;;;;;;;10319104;28;20038;-46
2022/07/04 00:30:42;;;;;;;8.82;1.80;;;;;;;;;;10323964;28;20023;-47
2022/07/04 00:35:42;;;;;;;2.78;1.60;;;;;;;;;;10323587;28;20272;-47
2022/07/04 00:40:43;;;;;;;4.05;1.77;;;;;;;;;;10319478;28;20041;-46
2022/07/04 00:45:44;;;;;;;3.28;1.63;;;;;;;;;;10321495;28;20097;-46
2022/07/04 00:50:46;;;;;;;5.35;1.50;;;;;;;;;;10319186;28;20030;-46
2022/07/04 00:55:46;;;;;;;5.03;1.50;;;;;;;;;;10321912;28;20117;-46
2022/07/04 01:00:49;;;;;;;2.38;1.42;;;;;;;;;;10323339;28;20042;-46
2022/07/04 01:05:49;;;;;;;6.05;1.50;;;;;;;;;;10303885;28;20027;-46
2022/07/04 01:10:50;;;;;;;4.43;1.50;;;;;;;;;;10316237;28;20114;-46
2022/07/04 01:15:51;;;;;;;2.28;1.48;;;;;;;;;;10301605;28;20034;-48
2022/07/04 01:20:51;;;;;;;3.20;1.70;;;;;;;;;;10307047;28;20152;-47
2022/07/04 01:25:52;;;;;;;4.15;1.55;;;;;;;;;;10316483;28;20062;-48
2022/07/04 01:30:53;;;;;;;5.43;1.58;;;;;;;;;;10322876;28;20022;-48
2022/07/04 01:35:53;;;;;;;6.10;2.17;;;;;;;;;;10313197;28;20029;-47
2022/07/04 01:40:54;;;;;;;2.97;1.48;;;;;;;;;;10323466;28;20474;-47
2022/07/04 01:45:54;;;;;;;9.63;1.63;;;;;;;;;;10303544;28;20388;-46
2022/07/04 01:50:55;;;;;;;3.88;1.80;;;;;;;;;;10312824;28;20030;-47
2022/07/04 01:55:55;;;;;;;6.88;1.38;;;;;;;;;;10318423;28;20018;-46
2022/07/04 02:06:15;;;;;;;3.72;1.48;;;;;;;;;;10302156;28;20152;-47
2022/07/04 02:11:16;;;;;;;4.07;1.60;;;;;;;;;;10307434;28;20026;-47
2022/07/04 02:16:16;;;;;;;3.92;1.50;;;;;;;;;;10310370;28;20068;-47
2022/07/04 02:21:17;;;;;;;4.15;1.30;;;;;;;;;;10314374;28;20026;-47
2022/07/04 02:26:18;;;;;;;3.33;1.52;;;;;;;;;;10319232;28;20050;-47
2022/07/04 02:31:18;;;;;;;5.40;1.70;;;;;;;;;;10317900;28;20085;-47
2022/07/04 02:36:19;;;;;;;2.63;1.38;;;;;;;;;;10311813;28;20019;-46
2022/07/04 02:41:19;;;;;;;3.42;1.48;;;;;;;;;;10304042;28;20034;-47
2022/07/04 02:46:20;;;;;;;2.00;1.33;;;;;;;;;;10312294;28;20037;-47
2022/07/04 02:51:21;;;;;;;1.35;1.25;;;;;;;;;;10312892;28;20350;-47
2022/07/04 02:56:21;;;;;;;5.97;1.50;;;;;;;;;;10313834;28;20037;-47
2022/07/04 03:01:22;;;;;;;2.53;1.20;;;;;;;;;;10316483;28;20038;-47
2022/07/04 03:06:23;;;;;;;5.18;1.60;;;;;;;;;;10325100;28;20269;-47
2022/07/04 03:11:23;;;;;;;1.92;1.10;;;;;;;;;;10319160;28;20491;-47
2022/07/04 03:16:24;;;;;;;2.63;1.15;;;;;;;;;;10330867;28;20061;-47
2022/07/04 03:21:24;;;;;;;3.10;1.60;;;;;;;;;;10319009;28;20034;-46
2022/07/04 03:26:27;;;;;;;1.98;1.10;;;;;;;;;;10330043;28;20038;-46
2022/07/04 03:31:29;;;;;;;2.20;1.25;;;;;;;;;;10322581;28;20039;-46
2022/07/04 03:36:30;;;;;;;2.38;1.45;;;;;;;;;;10317779;28;20030;-45
2022/07/04 03:41:30;;;;;;;1.42;1.33;;;;;;;;;;10309935;28;20034;-45
2022/07/04 03:46:31;;;;;;;3.58;1.30;;;;;;;;;;10323153;28;20027;-45
2022/07/04 03:51:32;;;;;;;6.13;1.52;;;;;;;;;;10311186;28;20490;-47
2022/07/04 03:56:32;;;;;;;7.65;1.40;;;;;;;;;;10319436;28;20023;-47
2022/07/04 04:01:33;;;;;;;6.30;1.45;;;;;;;;;;10310514;28;20037;-47
2022/07/04 04:06:34;;;;;;;4.45;1.40;;;;;;;;;;10329063;28;20019;-47
2022/07/04 04:11:34;;;;;;;7.32;1.27;;;;;;;;;;10328628;28;20026;-47
2022/07/04 04:16:35;;;;;;;6.65;1.60;;;;;;;;;;10323369;28;20038;-48
2022/07/04 04:21:35;;;;;;;1.98;1.17;;;;;;;;;;10306761;28;20568;-46
2022/07/04 04:26:36;;;;;;;4.88;1.48;;;;;;;;;;10326287;28;20058;-46
2022/07/04 04:31:37;;;;;;;3.17;1.50;;;;;;;;;;10321828;28;20467;-46
2022/07/04 04:36:37;;;;;;;5.50;1.23;;;;;;;;;;10323184;28;20038;-46
2022/07/04 04:41:38;;;;;;;1.38;1.10;;;;;;;;;;10312775;28;20045;-46
2022/07/04 04:46:38;;;;;;;1.92;1.13;;;;;;;;;;10328546;28;20018;-43
2022/07/04 04:51:40;;;;;;;2.35;1.05;;;;;;;;;;10320779;28;20026;-44
2022/07/04 04:56:40;;;;;;;1.77;1.20;;;;;;;;;;10319460;28;20019;-44
2022/07/04 05:01:50;;;;;;;22.05;1.52;;;;;;;;;;10316577;28;20081;-47
2022/07/04 05:06:51;;;;;;;10.98;1.15;;;;;;;;;;10315893;28;20042;-46
2022/07/04 05:11:52;;;;;;;6.03;1.55;;;;;;;;;;10313085;28;20080;-48
2022/07/04 05:16:52;;;;;;;8.95;1.60;;;;;;;;;;10319180;28;20031;-45
2022/07/04 05:21:53;;;;;;;9.57;2.05;;;;;;;;;;10316451;28;20108;-47
2022/07/04 05:26:54;;;;;;;8.40;1.33;;;;;;;;;;10359418;23;20572;-54
2022/07/04 05:31:54;;;;;;;13.30;1.70;;;;;;;;;;10351482;28;20034;-56
2022/07/04 05:36:56;;;;;;;23.25;1.50;;;;;;;;;;10308121;28;20133;-52
2022/07/04 05:41:56;;;;;;;11.35;1.67;;;;;;;;;;10306628;28;20489;-52
2022/07/04 05:46:57;;;;;;;5.20;1.80;;;;;;;;;;10321126;28;20030;-54
2022/07/04 05:51:58;;;;;;;14.02;2.20;;;;;;;;;;10305503;28;20034;-56
2022/07/04 05:56:58;;;;;;;10.65;2.72;;;;;;;;;;10305845;28;20026;-58
2022/07/04 06:01:59;;;;;;;8.50;3.08;;;;;;;;;;10313831;28;20129;-57
2022/07/04 06:06:59;;;;;;;4.93;2.78;;;;;;;;;;10310652;28;20031;-57
2022/07/04 06:12:00;;;;;;;9.00;2.88;;;;;;;;;;10313465;28;20042;-58
2022/07/04 06:17:01;;;;;;;10.43;3.15;;;;;;;;;;10313229;28;20481;-59
2022/07/04 06:22:02;;;;;;;5.90;2.90;;;;;;;;;;10310198;28;20031;-58
2022/07/04 06:27:03;;;;;;;14.57;3.30;;;;;;;;;;10300852;28;20105;-58
2022/07/04 06:32:04;;;;;;;12.15;3.78;;;;;;;;;;10325602;28;20048;-58
2022/07/04 06:37:04;;;;;;;9.38;3.20;;;;;;;;;;10325468;28;20037;-55
2022/07/04 06:42:05;;;;;;;8.57;3.40;;;;;;;;;;10325654;28;20041;-58
2022/07/04 06:47:06;;;;;;;7.38;2.90;;;;;;;;;;10313026;28;20112;-58
2022/07/04 06:52:06;;;;;;;6.75;2.85;;;;;;;;;;10324807;28;20363;-56
2022/07/04 06:57:07;;;;;;;7.55;2.90;;;;;;;;;;10325891;28;20049;-59
2022/07/04 07:02:07;;;;;;;5.88;2.53;;;;;;;;;;10325400;28;20390;-58
2022/07/04 07:07:09;;;;;;;10.30;2.85;;;;;;;;;;10324538;28;20030;-59
2022/07/04 07:12:09;;;;;;;5.25;3.13;;;;;;;;;;10324457;28;20050;-58
2022/07/04 07:17:10;;;;;;;5.50;2.70;;;;;;;;;;10321681;28;20101;-58
2022/07/04 07:22:12;;;;;;;12.25;2.85;;;;;;;;;;10322811;28;20076;-58
2022/07/04 07:27:12;;;;;;;3.97;2.78;;;;;;;;;;10319181;28;20406;-58
2022/07/04 07:32:13;;;;;;;5.75;2.53;;;;;;;;;;10323860;28;20038;-58
2022/07/04 07:37:14;;;;;;;4.55;2.50;;;;;;;;;;10323833;28;20026;-59
2022/07/04 07:42:16;;;;;;;5.93;2.45;;;;;;;;;;10312204;28;20073;-58
2022/07/04 07:47:16;;;;;;;6.07;2.60;;;;;;;;;;10324747;28;20422;-59
2022/07/04 07:52:17;;;;;;;6.22;2.60;;;;;;;;;;10318850;28;20046;-58
2022/07/04 07:57:18;;;;;;;7.68;2.90;;;;;;;;;;10321060;28;20261;-59
2022/07/04 08:02:18;;;;;;;4.22;2.40;;;;;;;;;;10326149;28;20034;-58
2022/07/04 08:07:19;;;;;;;8.00;2.70;;;;;;;;;;10328186;28;20145;-59
2022/07/04 08:12:19;;;;;;;6.07;2.53;;;;;;;;;;10328005;28;20026;-57
2022/07/04 08:17:20;;;;;;;4.55;2.97;;;;;;;;;;10326662;28;20029;-58
2022/07/04 08:22:21;;;;;;;13.80;2.88;;;;;;;;;;10326216;28;20053;-56
2022/07/04 08:27:24;;;;;;;4.47;2.70;;;;;;;;;;10329014;28;20040;-60
2022/07/04 08:32:25;;;;;;;5.65;2.88;;;;;;;;;;10327320;28;20030;-58
2022/07/04 08:37:25;;;;;;;6.90;2.97;;;;;;;;;;10330593;28;20090;-58
2022/07/04 08:42:29;;;;;;;9.38;2.97;;;;;;;;;;10324809;28;20540;-58
2022/07/04 08:47:35;;;;;;;7.65;3.17;;;;;;;;;;10322972;28;20030;-59
2022/07/04 08:52:41;;;;;;;5.28;2.85;;;;;;;;;;10329386;28;20034;-57
2022/07/04 09:03:03;;;;;;;3.78;2.63;;;;;;;;;;10322665;28;20022;-59
2022/07/04 09:08:05;;;;;;;8.15;2.92;;;;;;;;;;10320694;28;20113;-58
2022/07/04 09:13:08;;;;;;;6.93;2.75;;;;;;;;;;10324762;28;20061;-57
2022/07/04 09:18:31;;;;;;;8.15;2.88;;;;;;;;;;10321699;28;20109;-59
2022/07/04 09:23:40;;;;;;;4.22;2.70;;;;;;;;;;10314895;28;20046;-58
2022/07/04 09:28:52;;;;;;;8.18;2.80;;;;;;;;;;10319298;28;20027;-58
2022/07/04 09:34:02;;;;;;;3.13;2.47;;;;;;;;;;10325877;28;20490;-58
2022/07/04 09:39:20;;;;;;;7.57;2.60;;;;;;;;;;10326913;28;20023;-59
2022/07/04 09:44:22;;;;;;;10.82;3.05;;;;;;;;;;10321065;28;20038;-58
2022/07/04 09:49:23;;;;;;;8.05;2.65;;;;;;;;;;10324496;28;20022;-57
2022/07/04 09:54:27;;;;;;;8.95;2.90;;;;;;;;;;10323600;28;20026;-58
2022/07/04 09:59:29;;;;;;;8.20;2.90;;;;;;;;;;10318498;28;20034;-59
2022/07/04 10:04:46;;;;;;;7.13;2.60;;;;;;;;;;10318582;28;20472;-58
2022/07/04 10:09:47;;;;;;;6.50;2.43;;;;;;;;;;10303279;28;20037;-59
2022/07/04 10:14:47;;;;;;;9.85;2.80;;;;;;;;;;10320680;28;20078;-58
2022/07/04 10:19:51;;;;;;;3.42;2.63;;;;;;;;;;10322301;28;20396;-58
2022/07/04 10:24:52;;;;;;;7.60;2.78;;;;;;;;;;10323463;28;20038;-58
2022/07/04 10:29:53;;;;;;;8.38;3.20;;;;;;;;;;10318369;28;20022;-58
2022/07/04 10:34:54;;;;;;;3.97;2.10;;;;;;;;;;10322835;28;20080;-59
2022/07/04 10:40:07;;;;;;;6.00;2.70;;;;;;;;;;10323295;28;20026;-58
2022/07/04 10:45:38;;;;;;;9.82;2.80;;;;;;;;;;10322529;28;20335;-58
2022/07/04 10:51:08;;;;;;;7.28;3.10;;;;;;;;;;10319408;28;20525;-59
2022/07/04 10:56:37;;;;;;;5.55;2.50;;;;;;;;;;10315131;28;20038;-58
2022/07/04 11:01:54;;;;;;;5.35;2.78;;;;;;;;;;10310689;28;20389;-58
2022/07/04 11:06:55;;;;;;;5.63;2.88;;;;;;;;;;10309275;28;20112;-58
2022/07/04 11:12:03;;;;;;;3.53;2.58;;;;;;;;;;10319686;28;20538;-58
2022/07/04 11:17:08;;;;;;;6.07;2.33;;;;;;;;;;10315565;28;20027;-58
2022/07/04 11:22:10;;;;;;;4.43;2.55;;;;;;;;;;10316059;28;20041;-59
2022/07/04 11:27:11;;;;;;;4.47;2.35;;;;;;;;;;10324446;28;20364;-58
2022/07/04 11:32:12;;;;;;;6.22;2.50;;;;;;;;;;10327026;28;20026;-58
2022/07/04 11:37:21;;;;;;;5.05;2.55;;;;;;;;;;10314958;28;20077;-58
2022/07/04 11:48:02;;;;;;;3.85;2.20;;;;;;;;;;10327048;28;20038;-56
2022/07/04 11:53:04;;;;;;;5.07;2.08;;;;;;;;;;10328151;28;20026;-58
2022/07/04 11:58:05;;;;;;;4.93;2.00;;;;;;;;;;10324621;28;20447;-58
2022/07/04 12:03:08;;;;;;;3.03;1.95;;;;;;;;;;10322406;28;20038;-59
2022/07/04 12:08:08;;;;;;;4.13;1.90;;;;;;;;;;10324207;28;20030;-58
2022/07/04 12:13:16;;;;;;;5.90;2.67;;;;;;;;;;10316441;28;20045;-59
2022/07/04 12:18:22;;;;;;;5.50;2.30;;;;;;;;;;10318703;28;20065;-56
2022/07/04 12:23:28;;;;;;;11.60;2.35;;;;;;;;;;10325293;28;20053;-57
2022/07/04 12:28:37;;;;;;;11.15;2.47;;;;;;;;;;10321579;28;20034;-59
2022/07/04 12:33:38;;;;;;;10.30;2.65;;;;;;;;;;10318373;28;20054;-58
2022/07/04 12:38:41;;;;;;;12.63;3.03;;;;;;;;;;10323677;28;20397;-58
2022/07/04 12:43:42;;;;;;;6.85;2.15;;;;;;;;;;10319051;28;20041;-59
2022/07/04 12:48:43;;;;;;;4.20;2.13;;;;;;;;;;10323652;28;20019;-58
2022/07/04 12:53:46;;;;;;;5.72;2.17;;;;;;;;;;10314915;28;20548;-59
2022/07/04 12:58:47;;;;;;;5.03;1.60;;;;;;;;;;10316660;28;20100;-59
2022/07/04 13:03:48;;;;;;;8.05;2.38;;;;;;;;;;10321790;28;20034;-58
2022/07/04 13:08:48;;;;;;;3.97;1.20;;;;;;;;;;10328160;28;20114;-59
2022/07/04 13:13:49;;;;;;;4.68;1.63;;;;;;;;;;10323161;28;20030;-59
2022/07/04 13:18:49;;;;;;;7.20;1.60;;;;;;;;;;10329121;28;20039;-59
2022/07/04 13:23:51;;;;;;;6.93;1.88;;;;;;;;;;10316819;28;20050;-58
2022/07/04 13:28:52;;;;;;;10.82;2.13;;;;;;;;;;10318138;28;20312;-58
2022/07/04 13:33:56;;;;;;;10.02;1.83;;;;;;;;;;10325336;28;20022;-57
2022/07/04 13:38:56;;;;;;;9.50;1.77;;;;;;;;;;10322858;28;20516;-59
2022/07/04 13:43:58;;;;;;;5.13;1.73;;;;;;;;;;10315765;28;20042;-59
2022/07/04 13:48:58;;;;;;;3.58;1.38;;;;;;;;;;10310785;28;20477;-59
2022/07/04 13:53:59;;;;;;;4.60;1.60;;;;;;;;;;10317664;28;20030;-57
2022/07/04 13:59:01;;;;;;;4.50;1.27;;;;;;;;;;10311610;28;20038;-58
2022/07/04 14:04:03;;;;;;;9.20;1.67;;;;;;;;;;10322641;28;20500;-59
2022/07/04 14:09:04;;;;;;;5.50;1.77;;;;;;;;;;10315091;28;20038;-58
2022/07/04 14:14:04;;;;;;;3.53;1.55;;;;;;;;;;10312005;28;20035;-59
2022/07/04 14:19:05;;;;;;;3.05;1.30;;;;;;;;;;10295126;28;20382;-59
2022/07/04 14:24:06;;;;;;;2.50;1.20;;;;;;;;;;10306175;28;20068;-59
2022/07/04 14:29:06;;;;;;;2.83;1.20;;;;;;;;;;10315508;28;20037;-59
2022/07/04 14:34:10;;;;;;;3.05;1.20;;;;;;;;;;10322993;28;20030;-58
2022/07/04 14:39:10;;;;;;;4.78;1.27;;;;;;;;;;10325390;28;20393;-58
2022/07/04 14:44:11;;;;;;;3.80;1.33;;;;;;;;;;10319285;28;20037;-59
2022/07/04 14:49:11;;;;;;;2.33;1.30;;;;;;;;;;10314683;28;20085;-59
2022/07/04 14:54:12;;;;;;;3.08;1.27;;;;;;;;;;10317497;28;20026;-59
2022/07/04 14:59:13;;;;;;;1.95;1.17;;;;;;;;;;10322236;28;20383;-59
2022/07/04 15:04:13;;;;;;;4.13;1.10;;;;;;;;;;10322349;28;20386;-59
2022/07/04 15:09:14;;;;;;;3.15;1.10;;;;;;;;;;10328586;28;20030;-58
2022/07/04 15:14:15;;;;;;;12.00;1.88;;;;;;;;;;10329709;28;20085;-58
2022/07/04 15:19:17;;;;;;;1.63;1.10;;;;;;;;;;10320545;28;20034;-59
2022/07/04 15:24:18;;;;;;;3.90;1.10;;;;;;;;;;10328021;28;20042;-58
2022/07/04 15:29:21;;;;;;;5.03;1.27;;;;;;;;;;10326821;28;20026;-57
2022/07/04 15:34:22;;;;;;;2.45;1.00;;;;;;;;;;10327633;28;20084;-58
2022/07/04 15:39:23;;;;;;;6.18;1.48;;;;;;;;;;10320262;28;20540;-58
2022/07/04 15:44:23;;;;;;;2.08;1.10;;;;;;;;;;10317792;28;20041;-58
2022/07/04 15:49:24;;;;;;;3.40;1.08;;;;;;;;;;10309223;28;20389;-58
2022/07/04 15:54:25;;;;;;;2.58;1.40;;;;;;;;;;10320058;28;20584;-58
2022/07/04 15:59:26;;;;;;;3.92;1.30;;;;;;;;;;10322408;28;20068;-58
2022/07/04 16:04:27;;;;;;;2.40;1.20;;;;;;;;;;10323080;28;20189;-57
2022/07/04 16:09:28;;;;;;;5.03;1.42;;;;;;;;;;10324129;28;20439;-57
2022/07/04 16:14:29;;;;;;;4.50;1.25;;;;;;;;;;10323485;28;20217;-59
2022/07/04 16:19:30;;;;;;;1.65;1.08;;;;;;;;;;10324251;28;20117;-57
2022/07/04 16:24:31;;;;;;;3.10;1.20;;;;;;;;;;10323648;28;20046;-59
2022/07/04 16:29:32;;;;;;;2.85;1.25;;;;;;;;;;10326313;28;20026;-59
2022/07/04 16:34:33;;;;;;;5.68;1.20;;;;;;;;;;10325965;28;20042;-57
2022/07/04 16:39:33;;;;;;;4.35;1.30;;;;;;;;;;10319961;28;20429;-58
2022/07/04 16:44:34;;;;;;;2.70;1.13;;;;;;;;;;10325543;28;20053;-59
2022/07/04 16:49:34;;;;;;;1.30;1.08;;;;;;;;;;10319684;28;20394;-59
2022/07/04 16:54:35;;;;;;;6.10;1.58;;;;;;;;;;10324757;28;20394;-59
2022/07/04 16:59:36;;;;;;;2.72;1.30;;;;;;;;;;10320414;28;20182;-60
2022/07/04 17:04:37;;;;;;;2.70;1.33;;;;;;;;;;10319045;28;20486;-59
2022/07/04 17:09:38;;;;;;;1.80;1.20;;;;;;;;;;10322983;28;20034;-59
2022/07/04 17:14:38;;;;;;;5.13;1.30;;;;;;;;;;10311644;28;20039;-59
2022/07/04 17:19:39;;;;;;;7.63;1.77;;;;;;;;;;10317215;28;20018;-59
2022/07/04 17:24:40;;;;;;;8.38;1.55;;;;;;;;;;10326944;28;20054;-59
2022/07/04 17:29:40;;;;;;;5.40;1.42;;;;;;;;;;10315623;28;20054;-59
2022/07/04 17:34:41;;;;;;;6.05;1.30;;;;;;;;;;10325775;28;20026;-59
2022/07/04 17:39:42;;;;;;;1.27;1.10;;;;;;;;;;10317253;28;20034;-59
2022/07/04 17:44:42;;;;;;;4.63;1.35;;;;;;;;;;10326568;28;20068;-58
2022/07/04 17:49:43;;;;;;;3.67;1.30;;;;;;;;;;10320186;28;20029;-59
2022/07/04 17:54:44;;;;;;;2.50;1.20;;;;;;;;;;10321836;28;20508;-59
2022/07/04 17:59:45;;;;;;;2.85;1.17;;;;;;;;;;10323492;28;20032;-59
2022/07/04 18:04:45;;;;;;;8.77;1.50;;;;;;;;;;10322296;28;20030;-60
2022/07/04 18:09:46;;;;;;;5.82;1.30;;;;;;;;;;10307795;28;20034;-60
2022/07/04 18:14:47;;;;;;;5.45;1.30;;;;;;;;;;10315040;28;20469;-60
2022/07/04 18:19:47;;;;;;;6.57;1.17;;;;;;;;;;10311438;28;20042;-59
2022/07/04 18:24:48;;;;;;;7.75;1.48;;;;;;;;;;10311653;28;20046;-59
2022/07/04 18:29:49;;;;;;;1.95;1.33;;;;;;;;;;10311523;28;20043;-59
2022/07/04 18:34:49;;;;;;;5.00;1.10;;;;;;;;;;10313313;28;20022;-59
2022/07/04 18:39:50;;;;;;;3.15;1.20;;;;;;;;;;10310328;28;20026;-62
2022/07/04 18:44:50;;;;;;;7.90;1.40;;;;;;;;;;10318651;28;20467;-62
2022/07/04 18:49:51;;;;;;;38.75;3.55;;;;;;;;;;10317039;28;20056;-64
2022/07/04 18:54:52;;;;;;;41.72;3.15;;;;;;;;;;10312524;28;20038;-65
2022/07/04 18:59:55;;;;;;;27.20;3.78;;;;;;;;;;10301368;28;20026;-61
2022/07/04 19:04:56;;;;;;;38.20;3.53;;;;;;;;;;10302519;28;20037;-61
2022/07/04 19:09:57;;;;;;;30.83;3.88;;;;;;;;;;10308676;28;20522;-60
2022/07/04 19:14:58;;;;;;;24.88;2.70;;;;;;;;;;10312038;28;20062;-57
2022/07/04 19:19:58;;;;;;;23.15;3.22;;;;;;;;;;10321705;28;20022;-65
2022/07/04 19:24:59;;;;;;;31.75;3.50;;;;;;;;;;10307142;28;20510;-59
2022/07/04 19:30:03;;;;;;;25.60;3.63;;;;;;;;;;10322475;28;20053;-55
2022/07/04 19:35:06;;;;;;;26.63;3.53;;;;;;;;;;10312701;28;20031;-53
2022/07/04 19:40:08;;;;;;;19.30;2.80;;;;;;;;;;10285881;28;20030;-53
2022/07/04 19:45:09;;;;;;;27.67;3.40;;;;;;;;;;10302729;28;20027;-66
2022/07/04 19:50:10;;;;;;;17.70;3.33;;;;;;;;;;10308404;28;20384;-58
2022/07/04 19:55:12;;;;;;;17.40;2.72;;;;;;;;;;10315297;28;20090;-62
2022/07/04 20:00:17;;;;;;;28.65;3.80;;;;;;;;;;10342539;28;20595;-65
2022/07/04 20:05:18;;;;;;;22.13;2.58;;;;;;;;;;10328559;28;20482;-63
2022/07/04 20:10:19;;;;;;;23.27;2.90;;;;;;;;;;10340748;28;20026;-66
2022/07/04 20:15:19;;;;;;;18.15;2.85;;;;;;;;;;10328216;28;20120;-56
2022/07/04 20:20:26;;;;;;;15.32;3.08;;;;;;;;;;10348973;28;20037;-62
2022/07/04 20:25:37;;;;;;;17.23;2.63;;;;;;;;;;10336512;28;20090;-60
2022/07/04 20:30:45;;;;;;;21.80;2.58;;;;;;;;;;10314460;28;20034;-62
2022/07/04 20:35:51;;;;;;;;;;;;;;;;;;10322981;28;20033;-56
2022/07/04 20:40:51;;;;;;;14.30;2.30;;;;;;;;;;10316695;28;20059;-62
2022/07/04 20:45:52;;;;;;;12.63;2.20;;;;;;;;;;10321045;28;20549;-62
2022/07/04 20:50:53;;;;;;;16.05;2.50;;;;;;;;;;10326995;28;20397;-62
2022/07/04 20:55:54;;;;;;;14.45;1.90;;;;;;;;;;10330107;28;20448;-61
2022/07/04 21:00:55;;;;;;;15.43;2.38;;;;;;;;;;10321340;28;20041;-62
2022/07/04 21:05:56;;;;;;;10.95;1.92;;;;;;;;;;10332377;28;20488;-62
2022/07/04 21:10:57;;;;;;;10.45;2.40;;;;;;;;;;10332609;28;20030;-62
2022/07/04 21:15:58;;;;;;;10.65;1.60;;;;;;;;;;10332756;28;20441;-61
2022/07/04 21:20:58;;;;;;;12.52;1.90;;;;;;;;;;10331776;28;20037;-58
2022/07/04 21:25:59;;;;;;;10.40;2.10;;;;;;;;;;10333864;28;20046;-63
2022/07/04 21:31:00;;;;;;;17.20;2.50;;;;;;;;;;10336059;28;20026;-56
2022/07/04 21:36:02;;;;;;;12.80;2.10;;;;;;;;;;10330940;28;20230;-59
2022/07/04 21:41:03;;;;;;;11.13;2.47;;;;;;;;;;10326249;28;20050;-60
2022/07/04 21:46:04;;;;;;;11.57;2.13;;;;;;;;;;10308812;28;20022;-61
2022/07/04 21:51:05;;;;;;;40.67;3.20;;;;;;;;;;10300237;28;20264;-64
2022/07/04 21:56:05;;;;;;;31.00;2.92;;;;;;;;;;10302572;28;20226;-63
2022/07/04 22:01:06;;;;;;;22.80;2.78;;;;;;;;;;10295539;28;20042;-62
2022/07/04 22:06:06;;;;;;;36.55;3.53;;;;;;;;;;10296534;28;20101;-62
2022/07/04 22:11:07;;;;;;;34.30;2.50;;;;;;;;;;10296833;28;20030;-62
2022/07/04 22:16:08;;;;;;;19.65;2.83;;;;;;;;;;10307716;28;20045;-61
2022/07/04 22:21:09;;;;;;;21.25;2.58;;;;;;;;;;10320993;28;20121;-64
2022/07/04 22:26:10;;;;;;;15.63;2.70;;;;;;;;;;10303735;28;20046;-62
2022/07/04 22:31:11;;;;;;;26.52;2.35;;;;;;;;;;10308182;28;20501;-63
2022/07/04 22:36:11;;;;;;;15.90;2.50;;;;;;;;;;10297003;28;20088;-64
2022/07/04 22:41:13;;;;;;;21.23;2.45;;;;;;;;;;10316857;28;20504;-63
2022/07/04 22:46:13;;;;;;;17.08;3.28;;;;;;;;;;10316449;28;20100;-65
2022/07/04 22:51:14;;;;;;;26.35;2.97;;;;;;;;;;10309861;28;20031;-64
2022/07/04 22:56:15;;;;;;;7.65;1.95;;;;;;;;;;10316520;28;20061;-65
2022/07/04 23:01:16;;;;;;;10.05;2.08;;;;;;;;;;10300912;28;20433;-64
2022/07/04 23:06:18;;;;;;;9.48;2.20;;;;;;;;;;10301033;28;20041;-67
2022/07/04 23:11:18;;;;;;;6.07;2.08;;;;;;;;;;10313304;28;20034;-64
2022/07/04 23:16:19;;;;;;;9.38;2.20;;;;;;;;;;10312263;28;20034;-64
2022/07/04 23:21:19;;;;;;;6.13;1.92;;;;;;;;;;10314807;28;20031;-65
2022/07/04 23:26:20;;;;;;;8.20;1.75;;;;;;;;;;10321245;28;20126;-64
2022/07/04 23:31:20;;;;;;;9.52;2.03;;;;;;;;;;10317382;28;20027;-63
2022/07/04 23:36:21;;;;;;;5.78;1.75;;;;;;;;;;10305547;28;20027;-67
2022/07/04 23:41:22;;;;;;;4.80;1.75;;;;;;;;;;10317000;28;20030;-66
2022/07/04 23:46:23;;;;;;;6.97;1.75;;;;;;;;;;10324629;28;20030;-67
2022/07/04 23:51:23;;;;;;;9.68;1.95;;;;;;;;;;10322110;28;20053;-65
2022/07/04 23:56:24;;;;;;;6.28;1.70;;;;;;;;;;10319099;28;20026;-65
